LROD - ORADEA

Compiled: 18:08:08 on 20/10/2018

Latest METAR/SPECI Reports

METAR LROD 201800Z 17002KT 5000 BR NSC 14/12 Q1021=

Previous reports

METAR LROD 201730Z 15003KT 6000 NSC 14/12 Q1021=
METAR LROD 201700Z 20003KT 5000 BR NSC 14/12 Q1021=
METAR LROD 201630Z 20004KT 5000 BR NSC 14/12 Q1021=
METAR LROD 201600Z 20002KT 5000 BR FEW035 15/12 Q1021=

Latest TAF report

TAF LROD 201700Z 2018/2103 VRB04KT 5000 BR NSC TEMPO 2022/2103 3000 -RA BR BKN005 OVC030=

Valid WARNINGS

No valid warnings for LROD